createdAt,value
2018-07-07T00:01:26.810Z,26.80
2018-07-07T00:03:56.182Z,37.83
2018-07-07T00:06:25.542Z,32.70
2018-07-07T00:08:54.837Z,41.20
2018-07-07T00:11:24.088Z,39.38
2018-07-07T00:13:53.390Z,33.38
2018-07-07T00:16:22.634Z,43.33
2018-07-07T00:18:51.869Z,32.00
2018-07-07T00:21:21.409Z,35.15
2018-07-07T00:23:50.712Z,41.73
2018-07-07T00:26:19.939Z,30.33
2018-07-07T00:28:49.146Z,33.37
2018-07-07T00:31:18.484Z,28.85
2018-07-07T00:33:47.742Z,35.23
2018-07-07T00:36:16.970Z,29.20
2018-07-07T00:38:46.613Z,27.93
2018-07-07T00:41:15.864Z,30.68
2018-07-07T00:43:45.403Z,27.50
2018-07-07T00:46:14.692Z,27.00
2018-07-07T00:48:43.948Z,25.07
2018-07-07T00:51:13.141Z,22.60
2018-07-07T00:53:42.409Z,26.30
2018-07-07T00:56:11.690Z,25.23
2018-07-07T00:58:40.916Z,24.23
2018-07-07T01:01:10.173Z,22.90
2018-07-07T01:03:39.383Z,29.60
2018-07-07T01:06:08.634Z,25.30
2018-07-07T01:08:37.928Z,23.63
2018-07-07T01:11:07.290Z,24.47
2018-07-07T01:13:36.514Z,27.23
2018-07-07T01:16:06.113Z,28.77
2018-07-07T01:18:35.320Z,28.03
2018-07-07T01:21:04.544Z,31.63
2018-07-07T01:23:33.795Z,27.32
2018-07-07T01:26:03.021Z,31.90
2018-07-07T01:28:32.237Z,29.07
2018-07-07T01:31:01.504Z,30.07
2018-07-07T01:33:30.686Z,30.03
2018-07-07T01:35:59.900Z,34.58
2018-07-07T01:38:29.779Z,31.10
2018-07-07T01:40:59.199Z,33.10
2018-07-07T01:43:28.517Z,29.33
2018-07-07T01:45:57.863Z,32.40
2018-07-07T01:48:27.060Z,30.87
2018-07-07T01:50:56.297Z,35.83
2018-07-07T01:53:25.522Z,35.48
2018-07-07T01:55:54.771Z,31.37
2018-07-07T01:58:24.064Z,37.80
2018-07-07T02:00:53.321Z,36.33
2018-07-07T02:03:22.653Z,35.78
2018-07-07T02:05:52.029Z,41.97
2018-07-07T02:08:21.302Z,42.47
2018-07-07T02:10:50.650Z,40.40
2018-07-07T02:13:19.933Z,51.13
2018-07-07T02:15:49.167Z,48.60
2018-07-07T02:18:18.554Z,56.83
2018-07-07T02:20:47.791Z,57.10
2018-07-07T02:23:17.074Z,77.10
2018-07-07T02:25:47.209Z,59.33
2018-07-07T02:28:16.507Z,59.27
2018-07-07T02:30:45.866Z,55.97
2018-07-07T02:33:15.244Z,51.13
2018-07-07T02:35:44.522Z,56.17
2018-07-07T02:38:13.899Z,55.93
2018-07-07T02:40:43.413Z,59.77
2018-07-07T02:43:12.682Z,59.03
2018-07-07T02:45:42.037Z,56.30
2018-07-07T02:48:11.335Z,59.67
2018-07-07T02:50:40.612Z,51.83
2018-07-07T02:53:09.982Z,52.60
2018-07-07T02:55:39.198Z,50.80
2018-07-07T02:58:08.504Z,46.70
2018-07-07T03:00:37.778Z,53.63
2018-07-07T03:03:07.231Z,52.60
2018-07-07T03:05:36.447Z,58.27
2018-07-07T03:08:05.778Z,56.90
2018-07-07T03:10:35.025Z,56.40
2018-07-07T03:13:04.333Z,67.23
2018-07-07T03:15:33.635Z,58.97
2018-07-07T03:18:02.846Z,61.20
2018-07-07T03:20:32.097Z,59.70
2018-07-07T03:23:01.443Z,50.30
2018-07-07T03:25:30.615Z,49.93
2018-07-07T03:27:59.881Z,55.87
2018-07-07T03:30:29.108Z,52.20
2018-07-07T03:32:58.418Z,50.00
2018-07-07T03:35:27.650Z,52.47
2018-07-07T03:37:56.960Z,49.37
2018-07-07T03:40:26.218Z,52.80
2018-07-07T03:42:55.427Z,53.00
2018-07-07T03:45:24.940Z,50.78
2018-07-07T03:47:54.173Z,52.23
2018-07-07T03:50:23.387Z,48.50
2018-07-07T03:52:53.084Z,50.10
2018-07-07T03:55:22.398Z,50.20
2018-07-07T03:57:51.585Z,55.13
2018-07-07T04:00:20.846Z,62.83
2018-07-07T04:02:50.061Z,62.37
2018-07-07T04:05:19.353Z,65.77
2018-07-07T04:07:48.646Z,59.93
2018-07-07T04:10:17.928Z,49.00
2018-07-07T04:12:47.268Z,53.67
2018-07-07T04:15:16.507Z,49.00
2018-07-07T04:17:45.785Z,52.77
2018-07-07T04:20:14.970Z,50.07
2018-07-07T04:22:44.440Z,50.73
2018-07-07T04:25:13.720Z,42.33
2018-07-07T04:27:43.113Z,47.13
2018-07-07T04:30:12.343Z,46.50
2018-07-07T04:32:41.564Z,38.42
2018-07-07T04:35:11.258Z,48.53
2018-07-07T04:37:40.472Z,42.90
2018-07-07T04:40:09.805Z,49.93
2018-07-07T04:42:39.047Z,48.97
2018-07-07T04:45:08.552Z,53.30
2018-07-07T04:47:37.769Z,54.20
2018-07-07T04:50:07.138Z,46.93
2018-07-07T04:52:36.415Z,47.20
2018-07-07T04:55:05.797Z,54.50
2018-07-07T04:57:35.058Z,57.17
2018-07-07T05:00:04.336Z,47.13
2018-07-07T05:02:33.512Z,49.00
2018-07-07T05:05:02.728Z,58.80
2018-07-07T05:07:31.999Z,50.70
2018-07-07T05:10:01.281Z,55.60
2018-07-07T05:12:30.794Z,49.00
2018-07-07T05:15:00.022Z,49.50
2018-07-07T05:17:29.225Z,49.97
2018-07-07T05:20:14.249Z,51.47
2018-07-07T05:22:43.469Z,57.13
2018-07-07T05:25:12.705Z,53.77
2018-07-07T05:27:41.938Z,53.73
2018-07-07T05:30:11.163Z,60.50
2018-07-07T05:32:40.353Z,52.60
2018-07-07T05:35:09.745Z,62.57
2018-07-07T05:37:38.972Z,59.70
2018-07-07T05:40:08.299Z,56.27
2018-07-07T05:42:37.784Z,62.73
2018-07-07T05:45:08.222Z,62.43
2018-07-07T05:47:37.456Z,57.60
2018-07-07T05:50:06.795Z,68.07
2018-07-07T05:52:35.992Z,60.10
2018-07-07T05:55:05.421Z,59.93
2018-07-07T05:57:34.700Z,61.30
2018-07-07T06:00:03.958Z,69.60
2018-07-07T06:02:33.188Z,54.33
2018-07-07T06:05:02.462Z,61.47
2018-07-07T06:07:31.689Z,58.23
2018-07-07T06:10:00.930Z,57.00
2018-07-07T06:12:30.672Z,54.33
2018-07-07T06:14:59.891Z,57.40
2018-07-07T06:17:29.087Z,53.40
2018-07-07T06:19:59.133Z,48.37
2018-07-07T06:22:28.306Z,52.73
2018-07-07T06:24:57.893Z,48.60
2018-07-07T06:27:27.174Z,46.37
2018-07-07T06:29:56.461Z,41.60
2018-07-07T06:32:25.667Z,45.30
2018-07-07T06:34:54.912Z,41.67
2018-07-07T06:37:24.172Z,39.53
2018-07-07T06:39:53.356Z,42.37
2018-07-07T06:42:22.783Z,47.70
2018-07-07T06:44:52.023Z,45.00
2018-07-07T06:47:21.237Z,40.73
2018-07-07T06:49:50.471Z,40.57
2018-07-07T06:52:19.623Z,39.20
2018-07-07T06:54:48.819Z,41.67
2018-07-07T06:57:19.047Z,36.60
2018-07-07T06:59:48.221Z,39.47
2018-07-07T07:02:17.451Z,41.03
2018-07-07T07:04:46.657Z,32.70
2018-07-07T07:07:15.887Z,39.48
2018-07-07T07:09:45.225Z,36.13
2018-07-07T07:12:14.462Z,37.03
2018-07-07T07:14:43.776Z,38.23
2018-07-07T07:17:13.533Z,33.30
2018-07-07T07:19:42.778Z,34.93
2018-07-07T07:22:12.001Z,37.87
2018-07-07T07:24:41.175Z,33.80
2018-07-07T07:27:11.906Z,39.18
2018-07-07T07:29:41.204Z,33.80
2018-07-07T07:32:10.439Z,37.00
2018-07-07T07:34:39.727Z,34.40
2018-07-07T07:37:09.144Z,30.53
2018-07-07T07:39:38.364Z,33.73
2018-07-07T07:42:07.592Z,33.60
2018-07-07T07:44:36.800Z,32.50
2018-07-07T07:47:06.229Z,33.53
2018-07-07T07:49:35.678Z,34.73
2018-07-07T07:52:04.886Z,36.63
2018-07-07T07:54:34.075Z,30.30
2018-07-07T07:57:03.309Z,33.73
2018-07-07T07:59:32.565Z,36.53
2018-07-07T08:02:01.756Z,36.20
2018-07-07T08:04:31.016Z,39.20
2018-07-07T08:07:00.208Z,35.37
2018-07-07T08:09:29.494Z,37.67
2018-07-07T08:11:58.788Z,34.60
2018-07-07T08:14:28.042Z,35.27
2018-07-07T08:16:57.350Z,42.43
2018-07-07T08:19:26.690Z,45.33
2018-07-07T08:21:55.933Z,36.13
2018-07-07T08:24:25.181Z,35.83
2018-07-07T08:26:54.393Z,33.60
2018-07-07T08:29:23.590Z,29.65
2018-07-07T08:31:52.772Z,29.23
2018-07-07T08:34:21.969Z,27.03
2018-07-07T08:36:51.231Z,26.63
2018-07-07T08:39:20.426Z,24.80
2018-07-07T08:41:49.649Z,31.87
2018-07-07T08:44:18.807Z,30.73
2018-07-07T08:46:48.059Z,31.20
2018-07-07T08:49:17.339Z,31.00
2018-07-07T08:51:46.550Z,28.97
2018-07-07T08:54:15.834Z,30.37
2018-07-07T08:56:45.180Z,26.13
2018-07-07T08:59:14.332Z,31.90
2018-07-07T09:01:43.544Z,27.90
2018-07-07T09:04:12.831Z,25.67
2018-07-07T09:06:42.054Z,23.67
2018-07-07T09:09:11.340Z,24.70
2018-07-07T09:11:40.691Z,21.00
2018-07-07T09:14:09.936Z,21.73
2018-07-07T09:16:39.094Z,21.00
2018-07-07T09:19:08.495Z,27.67
2018-07-07T09:21:37.721Z,21.33
2018-07-07T09:24:07.078Z,20.70
2018-07-07T09:26:36.292Z,21.17
2018-07-07T09:29:05.709Z,20.17
2018-07-07T09:31:35.061Z,19.00
2018-07-07T09:34:04.226Z,19.77
2018-07-07T09:36:33.454Z,20.17
2018-07-07T09:39:02.676Z,18.30
2018-07-07T09:41:31.873Z,21.03
2018-07-07T09:44:01.185Z,22.37
2018-07-07T09:46:30.464Z,22.97
2018-07-07T09:48:59.689Z,21.93
2018-07-07T09:51:28.879Z,16.75
2018-07-07T09:53:58.101Z,17.77
2018-07-07T09:56:27.383Z,19.33
2018-07-07T09:58:56.554Z,17.93
2018-07-07T10:01:27.108Z,17.40
2018-07-07T10:03:56.301Z,15.57
2018-07-07T10:06:25.537Z,15.40
2018-07-07T10:08:54.718Z,14.57
2018-07-07T10:11:23.941Z,16.60
2018-07-07T10:13:53.100Z,17.80
2018-07-07T10:16:22.292Z,19.87
2018-07-07T10:18:51.490Z,20.43
2018-07-07T10:21:20.716Z,25.13
2018-07-07T10:23:49.945Z,18.03
2018-07-07T10:26:19.141Z,18.97
2018-07-07T10:28:48.363Z,16.23
2018-07-07T10:31:17.825Z,16.82
2018-07-07T10:33:47.142Z,14.13
2018-07-07T10:36:16.369Z,18.87
2018-07-07T10:38:45.683Z,16.07
2018-07-07T10:41:15.045Z,14.60
2018-07-07T10:43:44.322Z,15.33
2018-07-07T10:46:13.572Z,18.73
2018-07-07T10:48:42.881Z,16.17
2018-07-07T10:51:12.122Z,15.23
2018-07-07T10:53:41.536Z,17.13
2018-07-07T10:56:10.794Z,16.67
2018-07-07T10:58:40.130Z,16.17
2018-07-07T11:01:09.283Z,14.57
2018-07-07T11:03:38.646Z,14.90
2018-07-07T11:06:07.939Z,10.60
2018-07-07T11:08:37.193Z,11.87
2018-07-07T11:11:06.636Z,11.40
2018-07-07T11:13:35.846Z,13.97
2018-07-07T11:16:05.332Z,9.80
2018-07-07T11:18:34.555Z,9.73
2018-07-07T11:21:04.033Z,10.37
2018-07-07T11:23:33.246Z,9.73
2018-07-07T11:26:02.464Z,10.33
2018-07-07T11:28:31.657Z,11.93
2018-07-07T11:31:00.904Z,9.73
2018-07-07T11:33:30.099Z,13.40
2018-07-07T11:35:59.251Z,7.70
2018-07-07T11:38:28.518Z,6.93
2018-07-07T11:40:57.876Z,7.83
2018-07-07T11:43:28.021Z,9.58
2018-07-07T11:45:57.297Z,12.58
2018-07-07T11:48:26.646Z,8.50
2018-07-07T11:50:55.924Z,7.50
2018-07-07T11:53:25.093Z,7.42
2018-07-07T11:55:54.315Z,7.60
2018-07-07T11:58:23.600Z,8.23
2018-07-07T12:00:52.774Z,9.07
2018-07-07T12:03:22.114Z,9.30
2018-07-07T12:05:51.389Z,7.20
2018-07-07T12:08:20.816Z,12.40
2018-07-07T12:10:50.047Z,7.20
2018-07-07T12:13:19.318Z,6.75
2018-07-07T12:15:48.642Z,7.03
2018-07-07T12:18:17.928Z,7.23
2018-07-07T12:20:47.104Z,6.57
2018-07-07T12:23:16.294Z,7.53
2018-07-07T12:25:45.563Z,6.83
2018-07-07T12:28:14.834Z,7.67
2018-07-07T12:30:44.095Z,6.30
2018-07-07T12:33:13.305Z,6.03
2018-07-07T12:35:42.545Z,7.23
2018-07-07T12:38:11.861Z,5.57
2018-07-07T12:40:41.648Z,5.90
2018-07-07T12:43:11.539Z,6.27
2018-07-07T12:45:40.735Z,8.67
2018-07-07T12:48:09.958Z,5.30
2018-07-07T12:50:39.256Z,5.90
2018-07-07T12:53:08.748Z,5.60
2018-07-07T12:55:38.051Z,5.17
2018-07-07T12:58:07.229Z,5.17
2018-07-07T13:00:36.401Z,5.07
2018-07-07T13:03:05.664Z,5.13
2018-07-07T13:05:35.623Z,5.70
2018-07-07T13:08:04.873Z,4.60
2018-07-07T13:10:34.233Z,3.93
2018-07-07T13:13:03.397Z,7.23
2018-07-07T13:15:33.458Z,4.17
2018-07-07T13:18:02.797Z,3.03
2018-07-07T13:20:32.114Z,5.63
2018-07-07T13:23:01.281Z,6.40
2018-07-07T13:25:30.630Z,3.57
2018-07-07T13:27:59.870Z,3.00
2018-07-07T13:30:29.126Z,3.27
2018-07-07T13:32:58.508Z,3.03
2018-07-07T13:35:27.787Z,3.47
2018-07-07T13:37:57.089Z,3.73
2018-07-07T13:40:26.336Z,2.80
2018-07-07T13:42:55.570Z,3.23
2018-07-07T13:45:24.886Z,3.75
2018-07-07T13:47:54.085Z,3.40
2018-07-07T13:50:23.307Z,3.27
2018-07-07T13:52:52.610Z,4.30
2018-07-07T13:55:21.819Z,3.92
2018-07-07T13:57:51.108Z,2.92
2018-07-07T14:00:20.327Z,3.93
2018-07-07T14:02:49.570Z,3.60
2018-07-07T14:05:18.841Z,3.17
2018-07-07T14:07:48.078Z,3.60
2018-07-07T14:10:17.378Z,3.80
2018-07-07T14:12:46.667Z,3.50
2018-07-07T14:15:15.879Z,3.72
2018-07-07T14:17:45.145Z,3.27
2018-07-07T14:20:14.322Z,4.03
2018-07-07T14:22:43.650Z,3.73
2018-07-07T14:25:13.043Z,5.53
2018-07-07T14:27:42.177Z,4.03
2018-07-07T14:30:11.445Z,4.03
2018-07-07T14:32:42.566Z,14.87
2018-07-07T14:35:12.690Z,6.80
2018-07-07T14:37:42.072Z,5.33
2018-07-07T14:40:11.394Z,13.43
2018-07-07T14:42:46.874Z,5.73
2018-07-07T14:45:23.783Z,12.15
2018-07-07T14:47:54.097Z,4.33
2018-07-07T14:50:23.597Z,4.10
2018-07-07T14:52:52.929Z,4.33
2018-07-07T14:55:24.563Z,5.10
2018-07-07T14:57:53.865Z,8.10
2018-07-07T15:00:27.237Z,4.27
2018-07-07T15:02:57.530Z,4.70
2018-07-07T15:05:26.852Z,4.25
2018-07-07T15:07:56.121Z,4.10
2018-07-07T15:10:25.429Z,4.67
2018-07-07T15:12:55.375Z,7.70
2018-07-07T15:15:24.670Z,4.12
2018-07-07T15:17:54.833Z,8.20
2018-07-07T15:20:24.129Z,4.30
2018-07-07T15:22:53.416Z,4.50
2018-07-07T15:25:22.631Z,3.62
2018-07-07T15:27:51.858Z,5.70
2018-07-07T15:30:21.120Z,4.53
2018-07-07T15:32:50.345Z,4.10
2018-07-07T15:35:20.377Z,3.50
2018-07-07T15:37:49.592Z,9.93
2018-07-07T15:40:18.871Z,3.10
2018-07-07T15:42:48.146Z,3.93
2018-07-07T15:45:17.579Z,3.65
2018-07-07T15:47:47.250Z,5.70
2018-07-07T15:50:16.624Z,5.23
2018-07-07T15:52:45.941Z,3.60
2018-07-07T15:55:15.186Z,6.53
2018-07-07T15:57:44.341Z,15.23
2018-07-07T16:00:13.786Z,2.70
2018-07-07T16:02:43.080Z,3.10
2018-07-07T16:05:12.324Z,9.93
2018-07-07T16:07:41.555Z,4.00
2018-07-07T16:10:11.013Z,3.43
2018-07-07T16:12:40.212Z,3.10
2018-07-07T16:15:09.508Z,2.60
2018-07-07T16:17:38.760Z,4.03
2018-07-07T16:20:08.006Z,5.22
2018-07-07T16:22:37.726Z,2.70
2018-07-07T16:25:07.150Z,3.90
2018-07-07T16:27:36.466Z,2.50
2018-07-07T16:30:05.964Z,3.53
2018-07-07T16:32:35.254Z,3.23
2018-07-07T16:35:04.498Z,3.53
2018-07-07T16:37:33.854Z,4.37
2018-07-07T16:40:03.661Z,2.67
2018-07-07T16:42:34.011Z,3.20
2018-07-07T16:45:03.514Z,2.80
2018-07-07T16:47:32.908Z,4.10
2018-07-07T16:50:02.346Z,3.23
2018-07-07T16:52:32.224Z,3.33
2018-07-07T16:55:02.463Z,4.50
2018-07-07T16:57:31.732Z,3.80
2018-07-07T17:00:00.990Z,3.43
2018-07-07T17:02:30.651Z,2.90
2018-07-07T17:05:00.508Z,2.03
2018-07-07T17:07:29.841Z,3.07
2018-07-07T17:09:59.069Z,2.80
2018-07-07T17:12:28.392Z,2.33
2018-07-07T17:14:57.688Z,4.30
2018-07-07T17:17:27.007Z,13.20
2018-07-07T17:19:56.881Z,3.65
2018-07-07T17:22:26.152Z,2.50
2018-07-07T17:24:56.096Z,4.93
2018-07-07T17:27:25.976Z,3.10
2018-07-07T17:29:55.333Z,5.60
2018-07-07T17:32:24.565Z,2.33
2018-07-07T17:34:53.918Z,5.40
2018-07-07T17:37:23.324Z,3.83
2018-07-07T17:39:53.062Z,2.30
2018-07-07T17:42:22.360Z,2.77
2018-07-07T17:44:52.025Z,2.90
2018-07-07T17:47:21.346Z,3.67
2018-07-07T17:49:50.621Z,2.70
2018-07-07T17:52:19.900Z,3.63
2018-07-07T17:54:49.204Z,2.23
2018-07-07T17:57:19.137Z,2.20
2018-07-07T17:59:48.717Z,9.93
2018-07-07T18:02:17.977Z,2.50
2018-07-07T18:04:47.283Z,3.27
2018-07-07T18:07:16.451Z,2.85
2018-07-07T18:09:45.658Z,3.00
2018-07-07T18:12:14.918Z,2.73
2018-07-07T18:14:44.085Z,2.97
2018-07-07T18:17:13.313Z,2.70
2018-07-07T18:19:42.568Z,3.53
2018-07-07T18:22:11.701Z,2.50
2018-07-07T18:24:40.944Z,3.10
2018-07-07T18:27:11.236Z,6.97
2018-07-07T18:29:40.461Z,2.70
2018-07-07T18:32:09.697Z,3.45
2018-07-07T18:34:39.187Z,3.80
2018-07-07T18:37:08.556Z,4.77
2018-07-07T18:39:37.740Z,5.27
2018-07-07T18:42:07.589Z,2.90
2018-07-07T18:44:36.790Z,9.07
2018-07-07T18:47:06.214Z,3.43
2018-07-07T18:49:35.418Z,3.87
2018-07-07T18:52:04.652Z,3.00
2018-07-07T18:54:33.900Z,6.33
2018-07-07T18:57:03.069Z,3.17
2018-07-07T18:59:32.274Z,3.50
2018-07-07T19:02:01.545Z,3.60
2018-07-07T19:04:30.723Z,3.03
2018-07-07T19:07:01.545Z,2.87
2018-07-07T19:09:30.773Z,3.50
2018-07-07T19:12:00.019Z,4.13
2018-07-07T19:14:29.256Z,3.03
2018-07-07T19:16:58.500Z,3.60
2018-07-07T19:19:27.705Z,5.43
2018-07-07T19:22:02.026Z,12.83
2018-07-07T19:24:36.500Z,4.33
2018-07-07T19:27:07.737Z,9.77
2018-07-07T19:29:36.957Z,4.40
2018-07-07T19:32:11.442Z,8.83
2018-07-07T19:34:46.144Z,7.63
2018-07-07T19:37:16.975Z,4.03
2018-07-07T19:39:46.901Z,3.60
2018-07-07T19:42:16.227Z,3.90
2018-07-07T19:44:45.417Z,4.90
2018-07-07T19:47:14.680Z,10.33
2018-07-07T19:49:43.887Z,4.23
2018-07-07T19:52:13.098Z,5.10
2018-07-07T19:54:42.255Z,4.33
2018-07-07T19:57:11.519Z,4.00
2018-07-07T19:59:41.182Z,4.20
2018-07-07T20:02:10.393Z,4.40
2018-07-07T20:04:40.765Z,4.10
2018-07-07T20:07:10.018Z,3.97
2018-07-07T20:09:39.274Z,4.57
2018-07-07T20:12:08.524Z,10.47
2018-07-07T20:14:37.733Z,5.10
2018-07-07T20:17:08.265Z,5.03
2018-07-07T20:19:53.870Z,5.00
2018-07-07T20:22:23.092Z,5.23
2018-07-07T20:24:52.293Z,6.13
2018-07-07T20:27:26.714Z,5.03
2018-07-07T20:29:55.946Z,5.37
2018-07-07T20:32:30.431Z,5.07
2018-07-07T20:34:59.738Z,5.58
2018-07-07T20:37:28.982Z,4.60
2018-07-07T20:39:58.195Z,7.80
2018-07-07T20:42:27.407Z,4.57
2018-07-07T20:44:56.613Z,5.23
2018-07-07T20:47:25.827Z,6.08
2018-07-07T20:49:55.018Z,5.77
2018-07-07T20:52:24.248Z,6.30
2018-07-07T20:54:53.499Z,6.23
2018-07-07T20:57:22.784Z,5.77
2018-07-07T20:59:51.999Z,5.00
2018-07-07T21:02:21.169Z,5.30
2018-07-07T21:04:50.412Z,10.87
2018-07-07T21:07:19.612Z,8.83
2018-07-07T21:09:48.765Z,5.80
2018-07-07T21:12:18.019Z,6.40
2018-07-07T21:14:47.234Z,5.83
2018-07-07T21:17:16.361Z,8.63
2018-07-07T21:19:45.601Z,9.77
2018-07-07T21:22:14.782Z,4.87
2018-07-07T21:24:44.142Z,5.40
2018-07-07T21:27:13.336Z,5.13
2018-07-07T21:29:42.561Z,5.57
2018-07-07T21:32:11.769Z,6.47
2018-07-07T21:34:41.040Z,6.03
2018-07-07T21:37:10.342Z,6.27
2018-07-07T21:39:39.493Z,7.00
2018-07-07T21:42:08.633Z,7.10
2018-07-07T21:44:37.829Z,8.93
2018-07-07T21:47:08.240Z,7.23
2018-07-07T21:49:37.485Z,7.10
2018-07-07T21:52:06.858Z,8.50
2018-07-07T21:54:36.177Z,7.13
2018-07-07T21:57:05.442Z,8.23
2018-07-07T21:59:34.676Z,10.73
2018-07-07T22:02:09.077Z,8.00
2018-07-07T22:04:43.546Z,7.10
2018-07-07T22:07:18.094Z,9.50
2018-07-07T22:09:47.278Z,7.97
2018-07-07T22:12:16.554Z,8.00
2018-07-07T22:14:45.891Z,8.07
2018-07-07T22:17:15.205Z,17.03
2018-07-07T22:19:44.739Z,17.23
2018-07-07T22:22:13.997Z,8.63
2018-07-07T22:24:44.469Z,10.50
2018-07-07T22:27:15.010Z,12.40
2018-07-07T22:29:44.253Z,8.43
2018-07-07T22:32:18.664Z,8.60
2018-07-07T22:34:47.992Z,8.40
2018-07-07T22:37:17.277Z,12.60
2018-07-07T22:39:47.144Z,9.20
2018-07-07T22:42:18.966Z,9.33
2018-07-07T22:44:49.248Z,13.63
2018-07-07T22:47:18.493Z,12.87
2018-07-07T22:49:47.737Z,10.17
2018-07-07T22:52:17.266Z,11.57
2018-07-07T22:54:46.534Z,11.17
2018-07-07T22:57:15.762Z,8.33
2018-07-07T22:59:45.020Z,7.57
2018-07-07T23:02:14.295Z,8.10
2018-07-07T23:04:43.805Z,9.67
2018-07-07T23:07:13.130Z,8.00
2018-07-07T23:09:42.857Z,12.67
2018-07-07T23:12:12.175Z,8.43
2018-07-07T23:14:44.758Z,8.00
2018-07-07T23:17:14.351Z,7.23
2018-07-07T23:19:43.593Z,8.97
2018-07-07T23:22:15.545Z,7.90
2018-07-07T23:24:44.775Z,7.87
2018-07-07T23:27:14.084Z,14.00
2018-07-07T23:29:43.360Z,10.23
2018-07-07T23:32:12.625Z,9.27
2018-07-07T23:34:41.838Z,9.27
2018-07-07T23:37:11.230Z,10.90
2018-07-07T23:39:40.523Z,9.97
2018-07-07T23:42:09.766Z,8.33
2018-07-07T23:44:39.090Z,8.67
2018-07-07T23:47:08.450Z,20.08
2018-07-07T23:49:37.774Z,9.50
2018-07-07T23:52:07.054Z,10.23
2018-07-07T23:54:36.391Z,11.03
2018-07-07T23:57:05.723Z,8.80
2018-07-07T23:59:35.042Z,9.13
